sensor_id;sensor_type;location;lat;lon;timestamp;P1;durP1;ratioP1;P2;durP2;ratioP2
3006;SDS011;1513;47.650;10.720;2024-01-07T00:01:35;10.37;;;5.50;;
3006;SDS011;1513;47.650;10.720;2024-01-07T00:04:02;11.67;;;6.00;;
3006;SDS011;1513;47.650;10.720;2024-01-07T00:06:28;9.00;;;5.30;;
3006;SDS011;1513;47.650;10.720;2024-01-07T00:08:54;12.63;;;5.67;;
3006;SDS011;1513;47.650;10.720;2024-01-07T00:11:20;9.70;;;5.17;;
3006;SDS011;1513;47.650;10.720;2024-01-07T00:13:48;8.50;;;5.13;;
3006;SDS011;1513;47.650;10.720;2024-01-07T00:16:14;7.23;;;4.97;;
3006;SDS011;1513;47.650;10.720;2024-01-07T00:18:40;8.00;;;5.17;;
3006;SDS011;1513;47.650;10.720;2024-01-07T00:21:07;9.23;;;5.13;;
3006;SDS011;1513;47.650;10.720;2024-01-07T00:23:33;13.57;;;7.20;;
3006;SDS011;1513;47.650;10.720;2024-01-07T00:25:59;11.30;;;6.80;;
3006;SDS011;1513;47.650;10.720;2024-01-07T00:28:28;10.30;;;5.97;;
3006;SDS011;1513;47.650;10.720;2024-01-07T00:30:55;16.23;;;8.80;;
3006;SDS011;1513;47.650;10.720;2024-01-07T00:33:21;17.97;;;7.60;;
3006;SDS011;1513;47.650;10.720;2024-01-07T00:35:47;15.67;;;8.37;;
3006;SDS011;1513;47.650;10.720;2024-01-07T00:38:13;13.67;;;7.90;;
3006;SDS011;1513;47.650;10.720;2024-01-07T00:40:41;10.73;;;5.83;;
3006;SDS011;1513;47.650;10.720;2024-01-07T00:43:08;10.27;;;6.00;;
3006;SDS011;1513;47.650;10.720;2024-01-07T00:45:34;16.67;;;8.40;;
3006;SDS011;1513;47.650;10.720;2024-01-07T00:48:00;12.43;;;7.20;;
3006;SDS011;1513;47.650;10.720;2024-01-07T00:50:27;12.80;;;6.70;;
3006;SDS011;1513;47.650;10.720;2024-01-07T00:52:54;11.43;;;5.90;;
3006;SDS011;1513;47.650;10.720;2024-01-07T00:55:20;10.90;;;6.10;;
3006;SDS011;1513;47.650;10.720;2024-01-07T00:57:49;12.60;;;5.80;;
3006;SDS011;1513;47.650;10.720;2024-01-07T01:00:16;12.00;;;6.20;;
3006;SDS011;1513;47.650;10.720;2024-01-07T01:02:42;12.20;;;6.03;;
3006;SDS011;1513;47.650;10.720;2024-01-07T01:05:09;11.27;;;6.13;;
3006;SDS011;1513;47.650;10.720;2024-01-07T01:07:35;10.47;;;6.13;;
3006;SDS011;1513;47.650;10.720;2024-01-07T01:10:01;13.63;;;6.20;;
3006;SDS011;1513;47.650;10.720;2024-01-07T01:12:28;11.03;;;6.10;;
3006;SDS011;1513;47.650;10.720;2024-01-07T01:14:54;17.47;;;6.50;;
3006;SDS011;1513;47.650;10.720;2024-01-07T01:17:20;10.47;;;5.63;;
3006;SDS011;1513;47.650;10.720;2024-01-07T01:19:46;12.27;;;6.13;;
3006;SDS011;1513;47.650;10.720;2024-01-07T01:22:13;11.67;;;6.23;;
3006;SDS011;1513;47.650;10.720;2024-01-07T01:24:39;9.70;;;5.53;;
3006;SDS011;1513;47.650;10.720;2024-01-07T01:27:05;8.07;;;4.03;;
3006;SDS011;1513;47.650;10.720;2024-01-07T01:29:32;6.03;;;3.63;;
3006;SDS011;1513;47.650;10.720;2024-01-07T01:31:58;4.50;;;2.70;;
3006;SDS011;1513;47.650;10.720;2024-01-07T01:34:25;5.73;;;3.37;;
3006;SDS011;1513;47.650;10.720;2024-01-07T01:36:51;6.67;;;3.80;;
3006;SDS011;1513;47.650;10.720;2024-01-07T01:39:17;6.13;;;3.70;;
3006;SDS011;1513;47.650;10.720;2024-01-07T01:41:43;6.53;;;3.80;;
3006;SDS011;1513;47.650;10.720;2024-01-07T01:44:11;5.83;;;3.30;;
3006;SDS011;1513;47.650;10.720;2024-01-07T01:46:37;6.30;;;3.30;;
3006;SDS011;1513;47.650;10.720;2024-01-07T01:49:03;5.57;;;3.23;;
3006;SDS011;1513;47.650;10.720;2024-01-07T01:51:33;7.53;;;4.13;;
3006;SDS011;1513;47.650;10.720;2024-01-07T01:53:59;6.83;;;3.97;;
3006;SDS011;1513;47.650;10.720;2024-01-07T01:56:27;4.13;;;3.20;;
3006;SDS011;1513;47.650;10.720;2024-01-07T01:58:53;7.50;;;3.37;;
3006;SDS011;1513;47.650;10.720;2024-01-07T02:01:20;7.17;;;3.80;;
3006;SDS011;1513;47.650;10.720;2024-01-07T02:03:48;9.60;;;3.10;;
3006;SDS011;1513;47.650;10.720;2024-01-07T02:06:15;4.97;;;3.03;;
3006;SDS011;1513;47.650;10.720;2024-01-07T02:08:41;5.00;;;2.70;;
3006;SDS011;1513;47.650;10.720;2024-01-07T02:11:20;5.93;;;3.43;;
3006;SDS011;1513;47.650;10.720;2024-01-07T02:13:47;4.03;;;2.60;;
3006;SDS011;1513;47.650;10.720;2024-01-07T02:16:14;4.17;;;3.00;;
3006;SDS011;1513;47.650;10.720;2024-01-07T02:18:41;3.13;;;2.33;;
3006;SDS011;1513;47.650;10.720;2024-01-07T02:21:09;3.10;;;2.30;;
3006;SDS011;1513;47.650;10.720;2024-01-07T02:23:36;2.63;;;2.20;;
3006;SDS011;1513;47.650;10.720;2024-01-07T02:26:02;4.27;;;2.30;;
3006;SDS011;1513;47.650;10.720;2024-01-07T02:28:29;3.70;;;2.40;;
3006;SDS011;1513;47.650;10.720;2024-01-07T02:30:57;15.67;;;5.80;;
3006;SDS011;1513;47.650;10.720;2024-01-07T02:33:23;6.00;;;3.70;;
3006;SDS011;1513;47.650;10.720;2024-01-07T02:35:50;4.33;;;3.00;;
3006;SDS011;1513;47.650;10.720;2024-01-07T02:38:16;3.43;;;2.10;;
3006;SDS011;1513;47.650;10.720;2024-01-07T02:40:42;4.63;;;2.60;;
3006;SDS011;1513;47.650;10.720;2024-01-07T02:43:08;3.33;;;2.30;;
3006;SDS011;1513;47.650;10.720;2024-01-07T02:45:35;2.83;;;2.23;;
3006;SDS011;1513;47.650;10.720;2024-01-07T02:48:01;4.00;;;2.70;;
3006;SDS011;1513;47.650;10.720;2024-01-07T02:50:27;5.93;;;3.73;;
3006;SDS011;1513;47.650;10.720;2024-01-07T02:52:54;3.57;;;2.30;;
3006;SDS011;1513;47.650;10.720;2024-01-07T02:55:20;3.20;;;1.87;;
3006;SDS011;1513;47.650;10.720;2024-01-07T02:57:47;2.07;;;1.60;;
3006;SDS011;1513;47.650;10.720;2024-01-07T03:00:13;3.93;;;2.00;;
3006;SDS011;1513;47.650;10.720;2024-01-07T03:02:39;3.77;;;2.13;;
3006;SDS011;1513;47.650;10.720;2024-01-07T03:05:06;3.10;;;2.00;;
3006;SDS011;1513;47.650;10.720;2024-01-07T03:07:32;2.30;;;2.10;;
3006;SDS011;1513;47.650;10.720;2024-01-07T03:09:59;3.17;;;2.10;;
3006;SDS011;1513;47.650;10.720;2024-01-07T03:12:25;1.80;;;1.70;;
3006;SDS011;1513;47.650;10.720;2024-01-07T03:14:51;2.43;;;2.20;;
3006;SDS011;1513;47.650;10.720;2024-01-07T03:17:17;2.40;;;2.20;;
3006;SDS011;1513;47.650;10.720;2024-01-07T03:19:43;2.17;;;1.97;;
3006;SDS011;1513;47.650;10.720;2024-01-07T03:22:10;2.93;;;2.40;;
3006;SDS011;1513;47.650;10.720;2024-01-07T03:24:36;3.40;;;2.37;;
3006;SDS011;1513;47.650;10.720;2024-01-07T03:27:02;2.47;;;2.27;;
3006;SDS011;1513;47.650;10.720;2024-01-07T03:29:29;5.23;;;3.20;;
3006;SDS011;1513;47.650;10.720;2024-01-07T03:31:55;7.53;;;4.20;;
3006;SDS011;1513;47.650;10.720;2024-01-07T03:34:21;4.70;;;3.13;;
3006;SDS011;1513;47.650;10.720;2024-01-07T03:36:47;5.07;;;3.37;;
3006;SDS011;1513;47.650;10.720;2024-01-07T03:39:14;4.60;;;3.10;;
3006;SDS011;1513;47.650;10.720;2024-01-07T03:41:40;6.33;;;3.50;;
3006;SDS011;1513;47.650;10.720;2024-01-07T03:44:06;6.67;;;4.00;;
3006;SDS011;1513;47.650;10.720;2024-01-07T03:46:33;7.40;;;4.10;;
3006;SDS011;1513;47.650;10.720;2024-01-07T03:48:59;10.30;;;5.40;;
3006;SDS011;1513;47.650;10.720;2024-01-07T03:51:25;11.53;;;5.20;;
3006;SDS011;1513;47.650;10.720;2024-01-07T03:53:51;11.70;;;5.20;;
3006;SDS011;1513;47.650;10.720;2024-01-07T03:56:17;6.60;;;3.40;;
3006;SDS011;1513;47.650;10.720;2024-01-07T03:58:44;3.80;;;2.77;;
3006;SDS011;1513;47.650;10.720;2024-01-07T04:01:10;6.60;;;3.17;;
3006;SDS011;1513;47.650;10.720;2024-01-07T04:03:42;3.83;;;2.33;;
3006;SDS011;1513;47.650;10.720;2024-01-07T04:06:08;4.70;;;2.07;;
3006;SDS011;1513;47.650;10.720;2024-01-07T04:08:34;2.00;;;1.67;;
3006;SDS011;1513;47.650;10.720;2024-01-07T04:11:03;3.60;;;2.80;;
3006;SDS011;1513;47.650;10.720;2024-01-07T04:13:29;4.50;;;2.87;;
3006;SDS011;1513;47.650;10.720;2024-01-07T04:15:56;4.47;;;2.97;;
3006;SDS011;1513;47.650;10.720;2024-01-07T04:18:22;5.73;;;3.13;;
3006;SDS011;1513;47.650;10.720;2024-01-07T04:20:48;2.97;;;2.30;;
3006;SDS011;1513;47.650;10.720;2024-01-07T04:23:15;3.53;;;2.27;;
3006;SDS011;1513;47.650;10.720;2024-01-07T04:25:41;4.57;;;2.80;;
3006;SDS011;1513;47.650;10.720;2024-01-07T04:28:09;5.00;;;3.00;;
3006;SDS011;1513;47.650;10.720;2024-01-07T04:30:36;5.00;;;2.87;;
3006;SDS011;1513;47.650;10.720;2024-01-07T04:33:02;6.27;;;3.70;;
3006;SDS011;1513;47.650;10.720;2024-01-07T04:35:29;5.80;;;3.87;;
3006;SDS011;1513;47.650;10.720;2024-01-07T04:37:55;7.03;;;3.70;;
3006;SDS011;1513;47.650;10.720;2024-01-07T04:40:21;5.50;;;3.37;;
3006;SDS011;1513;47.650;10.720;2024-01-07T04:42:47;5.90;;;3.57;;
3006;SDS011;1513;47.650;10.720;2024-01-07T04:45:13;6.73;;;3.50;;
3006;SDS011;1513;47.650;10.720;2024-01-07T04:47:40;5.30;;;3.03;;
3006;SDS011;1513;47.650;10.720;2024-01-07T04:50:06;3.30;;;2.30;;
3006;SDS011;1513;47.650;10.720;2024-01-07T04:52:32;3.93;;;2.80;;
3006;SDS011;1513;47.650;10.720;2024-01-07T04:54:59;3.40;;;2.87;;
3006;SDS011;1513;47.650;10.720;2024-01-07T04:57:34;5.00;;;3.07;;
3006;SDS011;1513;47.650;10.720;2024-01-07T05:00:01;3.10;;;2.50;;
3006;SDS011;1513;47.650;10.720;2024-01-07T05:02:29;3.47;;;2.60;;
3006;SDS011;1513;47.650;10.720;2024-01-07T05:04:55;4.40;;;2.80;;
3006;SDS011;1513;47.650;10.720;2024-01-07T05:07:21;4.57;;;2.90;;
3006;SDS011;1513;47.650;10.720;2024-01-07T05:09:47;8.30;;;4.47;;
3006;SDS011;1513;47.650;10.720;2024-01-07T05:12:14;9.87;;;5.70;;
3006;SDS011;1513;47.650;10.720;2024-01-07T05:14:40;7.30;;;4.43;;
3006;SDS011;1513;47.650;10.720;2024-01-07T05:17:08;49.33;;;19.70;;
3006;SDS011;1513;47.650;10.720;2024-01-07T05:19:34;36.77;;;15.23;;
3006;SDS011;1513;47.650;10.720;2024-01-07T05:22:00;21.47;;;9.47;;
3006;SDS011;1513;47.650;10.720;2024-01-07T05:24:27;8.67;;;5.23;;
3006;SDS011;1513;47.650;10.720;2024-01-07T05:26:53;12.07;;;7.80;;
3006;SDS011;1513;47.650;10.720;2024-01-07T05:29:19;7.00;;;4.00;;
3006;SDS011;1513;47.650;10.720;2024-01-07T05:31:46;5.50;;;3.93;;
3006;SDS011;1513;47.650;10.720;2024-01-07T05:34:12;4.80;;;3.13;;
3006;SDS011;1513;47.650;10.720;2024-01-07T05:36:38;3.57;;;2.53;;
3006;SDS011;1513;47.650;10.720;2024-01-07T05:39:04;4.70;;;2.20;;
3006;SDS011;1513;47.650;10.720;2024-01-07T05:41:32;2.20;;;2.00;;
3006;SDS011;1513;47.650;10.720;2024-01-07T05:43:58;8.60;;;7.80;;
3006;SDS011;1513;47.650;10.720;2024-01-07T05:46:24;5.40;;;4.13;;
3006;SDS011;1513;47.650;10.720;2024-01-07T05:48:51;3.20;;;2.90;;
3006;SDS011;1513;47.650;10.720;2024-01-07T05:51:17;3.17;;;2.80;;
3006;SDS011;1513;47.650;10.720;2024-01-07T05:53:44;3.13;;;2.30;;
3006;SDS011;1513;47.650;10.720;2024-01-07T05:56:11;3.27;;;2.20;;
3006;SDS011;1513;47.650;10.720;2024-01-07T05:58:37;3.77;;;2.67;;
3006;SDS011;1513;47.650;10.720;2024-01-07T06:01:03;3.93;;;2.13;;
3006;SDS011;1513;47.650;10.720;2024-01-07T06:03:30;4.30;;;2.37;;
3006;SDS011;1513;47.650;10.720;2024-01-07T06:05:57;2.80;;;2.10;;
3006;SDS011;1513;47.650;10.720;2024-01-07T06:08:23;11.90;;;5.13;;
3006;SDS011;1513;47.650;10.720;2024-01-07T06:10:50;4.67;;;2.73;;
3006;SDS011;1513;47.650;10.720;2024-01-07T06:13:16;4.33;;;2.80;;
3006;SDS011;1513;47.650;10.720;2024-01-07T06:15:43;3.03;;;2.57;;
3006;SDS011;1513;47.650;10.720;2024-01-07T06:18:10;3.70;;;2.17;;
3006;SDS011;1513;47.650;10.720;2024-01-07T06:20:36;3.87;;;2.80;;
3006;SDS011;1513;47.650;10.720;2024-01-07T06:23:02;3.63;;;2.50;;
3006;SDS011;1513;47.650;10.720;2024-01-07T06:25:29;5.60;;;3.60;;
3006;SDS011;1513;47.650;10.720;2024-01-07T06:27:55;3.10;;;2.50;;
3006;SDS011;1513;47.650;10.720;2024-01-07T06:30:22;4.13;;;3.03;;
3006;SDS011;1513;47.650;10.720;2024-01-07T06:32:48;4.97;;;3.73;;
3006;SDS011;1513;47.650;10.720;2024-01-07T06:35:14;8.47;;;4.30;;
3006;SDS011;1513;47.650;10.720;2024-01-07T06:37:41;5.83;;;3.60;;
3006;SDS011;1513;47.650;10.720;2024-01-07T06:40:07;5.60;;;3.60;;
3006;SDS011;1513;47.650;10.720;2024-01-07T06:42:34;4.10;;;2.77;;
3006;SDS011;1513;47.650;10.720;2024-01-07T06:45:00;3.63;;;2.27;;
3006;SDS011;1513;47.650;10.720;2024-01-07T06:47:27;5.10;;;4.03;;
3006;SDS011;1513;47.650;10.720;2024-01-07T06:49:53;11.23;;;6.40;;
3006;SDS011;1513;47.650;10.720;2024-01-07T06:52:19;13.83;;;8.77;;
3006;SDS011;1513;47.650;10.720;2024-01-07T06:54:46;19.43;;;12.10;;
3006;SDS011;1513;47.650;10.720;2024-01-07T06:57:12;14.33;;;9.57;;
3006;SDS011;1513;47.650;10.720;2024-01-07T06:59:38;8.67;;;5.80;;
3006;SDS011;1513;47.650;10.720;2024-01-07T07:02:04;8.00;;;5.20;;
3006;SDS011;1513;47.650;10.720;2024-01-07T07:04:31;8.67;;;5.23;;
3006;SDS011;1513;47.650;10.720;2024-01-07T07:06:57;9.33;;;5.47;;
3006;SDS011;1513;47.650;10.720;2024-01-07T07:09:25;6.40;;;4.00;;
3006;SDS011;1513;47.650;10.720;2024-01-07T07:11:51;4.53;;;2.93;;
3006;SDS011;1513;47.650;10.720;2024-01-07T07:14:17;4.13;;;2.57;;
3006;SDS011;1513;47.650;10.720;2024-01-07T07:16:43;3.93;;;2.53;;
3006;SDS011;1513;47.650;10.720;2024-01-07T07:19:10;5.53;;;3.27;;
3006;SDS011;1513;47.650;10.720;2024-01-07T07:21:39;4.63;;;3.00;;
3006;SDS011;1513;47.650;10.720;2024-01-07T07:24:06;5.07;;;3.33;;
3006;SDS011;1513;47.650;10.720;2024-01-07T07:26:32;8.37;;;4.73;;
3006;SDS011;1513;47.650;10.720;2024-01-07T07:29:01;15.33;;;7.07;;
3006;SDS011;1513;47.650;10.720;2024-01-07T07:31:27;12.80;;;6.73;;
3006;SDS011;1513;47.650;10.720;2024-01-07T07:33:53;36.77;;;14.17;;
3006;SDS011;1513;47.650;10.720;2024-01-07T07:36:19;19.90;;;9.43;;
3006;SDS011;1513;47.650;10.720;2024-01-07T07:38:46;16.27;;;7.73;;
3006;SDS011;1513;47.650;10.720;2024-01-07T07:41:12;5.87;;;4.47;;
3006;SDS011;1513;47.650;10.720;2024-01-07T07:43:38;9.50;;;5.37;;
3006;SDS011;1513;47.650;10.720;2024-01-07T07:46:04;9.40;;;5.27;;
3006;SDS011;1513;47.650;10.720;2024-01-07T07:48:30;4.87;;;3.30;;
3006;SDS011;1513;47.650;10.720;2024-01-07T07:50:57;6.90;;;3.33;;
3006;SDS011;1513;47.650;10.720;2024-01-07T07:53:23;2.10;;;1.90;;
3006;SDS011;1513;47.650;10.720;2024-01-07T07:55:49;3.37;;;2.60;;
3006;SDS011;1513;47.650;10.720;2024-01-07T07:58:16;4.53;;;3.30;;
3006;SDS011;1513;47.650;10.720;2024-01-07T08:00:42;3.30;;;2.73;;
3006;SDS011;1513;47.650;10.720;2024-01-07T08:03:18;5.70;;;3.50;;
3006;SDS011;1513;47.650;10.720;2024-01-07T08:05:45;2.87;;;2.40;;
3006;SDS011;1513;47.650;10.720;2024-01-07T08:08:11;4.50;;;3.07;;
3006;SDS011;1513;47.650;10.720;2024-01-07T08:10:37;5.70;;;3.80;;
3006;SDS011;1513;47.650;10.720;2024-01-07T08:13:04;3.37;;;2.80;;
3006;SDS011;1513;47.650;10.720;2024-01-07T08:15:31;3.57;;;2.93;;
3006;SDS011;1513;47.650;10.720;2024-01-07T08:17:58;5.70;;;3.80;;
3006;SDS011;1513;47.650;10.720;2024-01-07T08:20:24;6.60;;;4.27;;
3006;SDS011;1513;47.650;10.720;2024-01-07T08:22:51;5.43;;;4.40;;
3006;SDS011;1513;47.650;10.720;2024-01-07T08:25:17;12.87;;;7.30;;
3006;SDS011;1513;47.650;10.720;2024-01-07T08:27:53;7.37;;;4.33;;
3006;SDS011;1513;47.650;10.720;2024-01-07T08:30:20;8.47;;;5.40;;
3006;SDS011;1513;47.650;10.720;2024-01-07T08:33:07;11.83;;;6.20;;
3006;SDS011;1513;47.650;10.720;2024-01-07T08:35:33;9.73;;;5.30;;
3006;SDS011;1513;47.650;10.720;2024-01-07T08:37:59;10.57;;;6.37;;
3006;SDS011;1513;47.650;10.720;2024-01-07T08:40:26;26.10;;;12.90;;
3006;SDS011;1513;47.650;10.720;2024-01-07T08:42:52;13.33;;;7.90;;
3006;SDS011;1513;47.650;10.720;2024-01-07T08:45:18;11.20;;;7.80;;
3006;SDS011;1513;47.650;10.720;2024-01-07T08:47:45;23.00;;;13.10;;
3006;SDS011;1513;47.650;10.720;2024-01-07T08:50:14;13.20;;;7.80;;
3006;SDS011;1513;47.650;10.720;2024-01-07T08:52:41;9.57;;;6.00;;
3006;SDS011;1513;47.650;10.720;2024-01-07T08:55:17;15.30;;;9.60;;
3006;SDS011;1513;47.650;10.720;2024-01-07T08:57:44;6.60;;;4.43;;
3006;SDS011;1513;47.650;10.720;2024-01-07T09:00:15;17.60;;;10.70;;
3006;SDS011;1513;47.650;10.720;2024-01-07T09:02:43;16.80;;;8.83;;
3006;SDS011;1513;47.650;10.720;2024-01-07T09:05:10;15.27;;;8.13;;
3006;SDS011;1513;47.650;10.720;2024-01-07T09:07:39;4.10;;;3.37;;
3006;SDS011;1513;47.650;10.720;2024-01-07T09:10:07;11.07;;;4.37;;
3006;SDS011;1513;47.650;10.720;2024-01-07T09:12:36;8.20;;;5.90;;
3006;SDS011;1513;47.650;10.720;2024-01-07T09:15:04;5.10;;;3.10;;
3006;SDS011;1513;47.650;10.720;2024-01-07T09:17:36;4.10;;;3.40;;
3006;SDS011;1513;47.650;10.720;2024-01-07T09:20:03;4.30;;;3.60;;
3006;SDS011;1513;47.650;10.720;2024-01-07T09:22:33;4.20;;;3.53;;
3006;SDS011;1513;47.650;10.720;2024-01-07T09:25:03;5.57;;;4.30;;
3006;SDS011;1513;47.650;10.720;2024-01-07T09:27:30;7.40;;;4.37;;
3006;SDS011;1513;47.650;10.720;2024-01-07T09:29:57;6.23;;;4.70;;
3006;SDS011;1513;47.650;10.720;2024-01-07T09:32:23;7.80;;;4.67;;
3006;SDS011;1513;47.650;10.720;2024-01-07T09:34:50;9.03;;;5.63;;
3006;SDS011;1513;47.650;10.720;2024-01-07T09:37:16;8.90;;;5.43;;
3006;SDS011;1513;47.650;10.720;2024-01-07T09:39:43;16.37;;;8.73;;
3006;SDS011;1513;47.650;10.720;2024-01-07T09:42:12;15.83;;;9.10;;
3006;SDS011;1513;47.650;10.720;2024-01-07T09:44:40;12.40;;;7.70;;
3006;SDS011;1513;47.650;10.720;2024-01-07T09:47:11;13.90;;;7.77;;
3006;SDS011;1513;47.650;10.720;2024-01-07T09:49:39;14.90;;;9.73;;
3006;SDS011;1513;47.650;10.720;2024-01-07T09:52:06;7.67;;;4.90;;
3006;SDS011;1513;47.650;10.720;2024-01-07T09:54:35;11.80;;;6.90;;
3006;SDS011;1513;47.650;10.720;2024-01-07T09:57:06;9.90;;;5.60;;
3006;SDS011;1513;47.650;10.720;2024-01-07T09:59:33;16.73;;;8.00;;
3006;SDS011;1513;47.650;10.720;2024-01-07T10:02:00;8.07;;;4.90;;
3006;SDS011;1513;47.650;10.720;2024-01-07T10:04:27;8.20;;;6.17;;
3006;SDS011;1513;47.650;10.720;2024-01-07T10:07:13;6.43;;;3.20;;
3006;SDS011;1513;47.650;10.720;2024-01-07T10:09:40;3.70;;;2.77;;
3006;SDS011;1513;47.650;10.720;2024-01-07T10:12:09;4.73;;;2.83;;
3006;SDS011;1513;47.650;10.720;2024-01-07T10:14:38;4.30;;;3.07;;
3006;SDS011;1513;47.650;10.720;2024-01-07T10:17:16;4.97;;;3.80;;
3006;SDS011;1513;47.650;10.720;2024-01-07T10:19:44;7.23;;;4.33;;
3006;SDS011;1513;47.650;10.720;2024-01-07T10:22:13;5.10;;;3.33;;
3006;SDS011;1513;47.650;10.720;2024-01-07T10:24:41;6.27;;;4.43;;
3006;SDS011;1513;47.650;10.720;2024-01-07T10:27:11;7.43;;;4.70;;
3006;SDS011;1513;47.650;10.720;2024-01-07T10:29:38;6.10;;;3.70;;
3006;SDS011;1513;47.650;10.720;2024-01-07T10:32:04;8.97;;;5.40;;
3006;SDS011;1513;47.650;10.720;2024-01-07T10:34:32;4.73;;;3.47;;
3006;SDS011;1513;47.650;10.720;2024-01-07T10:36:59;3.93;;;2.87;;
3006;SDS011;1513;47.650;10.720;2024-01-07T10:39:27;4.80;;;3.13;;
3006;SDS011;1513;47.650;10.720;2024-01-07T10:41:54;2.80;;;2.40;;
3006;SDS011;1513;47.650;10.720;2024-01-07T10:44:28;4.50;;;3.53;;
3006;SDS011;1513;47.650;10.720;2024-01-07T10:46:56;5.67;;;3.50;;
3006;SDS011;1513;47.650;10.720;2024-01-07T10:49:27;5.20;;;3.43;;
3006;SDS011;1513;47.650;10.720;2024-01-07T10:54:33;7.37;;;3.90;;
3006;SDS011;1513;47.650;10.720;2024-01-07T10:57:15;7.40;;;4.40;;
3006;SDS011;1513;47.650;10.720;2024-01-07T10:59:56;9.03;;;4.53;;
3006;SDS011;1513;47.650;10.720;2024-01-07T11:02:23;6.37;;;3.40;;
3006;SDS011;1513;47.650;10.720;2024-01-07T11:07:44;6.73;;;3.80;;
3006;SDS011;1513;47.650;10.720;2024-01-07T11:10:17;4.10;;;3.10;;
3006;SDS011;1513;47.650;10.720;2024-01-07T11:12:54;14.23;;;6.07;;
3006;SDS011;1513;47.650;10.720;2024-01-07T11:15:50;14.53;;;6.00;;
3006;SDS011;1513;47.650;10.720;2024-01-07T11:18:17;6.57;;;3.63;;
3006;SDS011;1513;47.650;10.720;2024-01-07T11:20:44;7.00;;;3.47;;
3006;SDS011;1513;47.650;10.720;2024-01-07T11:23:28;5.73;;;3.13;;
3006;SDS011;1513;47.650;10.720;2024-01-07T11:26:02;24.30;;;7.80;;
3006;SDS011;1513;47.650;10.720;2024-01-07T11:32:05;8.43;;;4.50;;
3006;SDS011;1513;47.650;10.720;2024-01-07T11:34:37;9.60;;;4.93;;
3006;SDS011;1513;47.650;10.720;2024-01-07T11:37:07;7.50;;;3.80;;
3006;SDS011;1513;47.650;10.720;2024-01-07T11:39:36;32.20;;;12.83;;
3006;SDS011;1513;47.650;10.720;2024-01-07T11:42:03;49.80;;;16.20;;
3006;SDS011;1513;47.650;10.720;2024-01-07T11:44:34;10.00;;;5.20;;
3006;SDS011;1513;47.650;10.720;2024-01-07T11:47:02;162.47;;;40.03;;
3006;SDS011;1513;47.650;10.720;2024-01-07T11:49:30;7.10;;;4.67;;
3006;SDS011;1513;47.650;10.720;2024-01-07T11:51:57;5.60;;;4.23;;
3006;SDS011;1513;47.650;10.720;2024-01-07T11:54:24;43.20;;;14.90;;
3006;SDS011;1513;47.650;10.720;2024-01-07T11:56:50;68.43;;;20.83;;
3006;SDS011;1513;47.650;10.720;2024-01-07T11:59:16;8.30;;;5.97;;
3006;SDS011;1513;47.650;10.720;2024-01-07T12:01:42;10.63;;;6.40;;
3006;SDS011;1513;47.650;10.720;2024-01-07T12:04:09;19.20;;;8.33;;
3006;SDS011;1513;47.650;10.720;2024-01-07T12:06:37;26.20;;;11.07;;
3006;SDS011;1513;47.650;10.720;2024-01-07T12:09:04;15.47;;;6.00;;
3006;SDS011;1513;47.650;10.720;2024-01-07T12:11:31;21.07;;;11.10;;
3006;SDS011;1513;47.650;10.720;2024-01-07T12:14:26;11.20;;;6.30;;
3006;SDS011;1513;47.650;10.720;2024-01-07T12:16:56;11.80;;;7.03;;
3006;SDS011;1513;47.650;10.720;2024-01-07T12:19:45;11.10;;;6.63;;
3006;SDS011;1513;47.650;10.720;2024-01-07T12:22:11;24.37;;;11.50;;
3006;SDS011;1513;47.650;10.720;2024-01-07T12:24:38;13.97;;;6.87;;
3006;SDS011;1513;47.650;10.720;2024-01-07T12:27:07;13.13;;;7.60;;
3006;SDS011;1513;47.650;10.720;2024-01-07T12:29:33;13.07;;;7.50;;
3006;SDS011;1513;47.650;10.720;2024-01-07T12:32:00;12.40;;;6.43;;
3006;SDS011;1513;47.650;10.720;2024-01-07T12:34:28;35.87;;;11.97;;
3006;SDS011;1513;47.650;10.720;2024-01-07T12:36:54;56.73;;;14.23;;
3006;SDS011;1513;47.650;10.720;2024-01-07T12:39:21;44.37;;;14.27;;
3006;SDS011;1513;47.650;10.720;2024-01-07T12:41:47;8.47;;;5.33;;
3006;SDS011;1513;47.650;10.720;2024-01-07T12:44:14;8.20;;;4.47;;
3006;SDS011;1513;47.650;10.720;2024-01-07T12:46:40;11.77;;;6.53;;
3006;SDS011;1513;47.650;10.720;2024-01-07T12:49:06;7.70;;;4.23;;
3006;SDS011;1513;47.650;10.720;2024-01-07T12:51:33;8.43;;;4.87;;
3006;SDS011;1513;47.650;10.720;2024-01-07T12:54:02;7.50;;;4.47;;
3006;SDS011;1513;47.650;10.720;2024-01-07T12:56:29;7.80;;;4.87;;
3006;SDS011;1513;47.650;10.720;2024-01-07T12:58:56;8.37;;;5.30;;
3006;SDS011;1513;47.650;10.720;2024-01-07T13:01:23;7.97;;;4.93;;
3006;SDS011;1513;47.650;10.720;2024-01-07T13:03:50;6.47;;;4.70;;
3006;SDS011;1513;47.650;10.720;2024-01-07T13:06:16;6.60;;;4.30;;
3006;SDS011;1513;47.650;10.720;2024-01-07T13:08:42;9.43;;;6.80;;
3006;SDS011;1513;47.650;10.720;2024-01-07T13:11:09;11.80;;;6.33;;
3006;SDS011;1513;47.650;10.720;2024-01-07T13:13:39;9.83;;;5.57;;
3006;SDS011;1513;47.650;10.720;2024-01-07T13:16:05;10.50;;;5.00;;
3006;SDS011;1513;47.650;10.720;2024-01-07T13:18:31;8.30;;;5.20;;
3006;SDS011;1513;47.650;10.720;2024-01-07T13:20:58;12.00;;;6.13;;
3006;SDS011;1513;47.650;10.720;2024-01-07T13:23:24;13.83;;;6.60;;
3006;SDS011;1513;47.650;10.720;2024-01-07T13:25:51;14.53;;;7.70;;
3006;SDS011;1513;47.650;10.720;2024-01-07T13:28:17;17.50;;;9.50;;
3006;SDS011;1513;47.650;10.720;2024-01-07T13:30:45;10.20;;;5.60;;
3006;SDS011;1513;47.650;10.720;2024-01-07T13:33:11;11.00;;;6.30;;
3006;SDS011;1513;47.650;10.720;2024-01-07T13:35:37;7.57;;;4.23;;
3006;SDS011;1513;47.650;10.720;2024-01-07T13:38:03;8.17;;;4.77;;
3006;SDS011;1513;47.650;10.720;2024-01-07T13:40:29;5.83;;;4.07;;
3006;SDS011;1513;47.650;10.720;2024-01-07T13:42:56;105.27;;;32.77;;
3006;SDS011;1513;47.650;10.720;2024-01-07T13:45:22;129.37;;;37.70;;
3006;SDS011;1513;47.650;10.720;2024-01-07T13:47:48;130.07;;;37.67;;
3006;SDS011;1513;47.650;10.720;2024-01-07T13:50:15;142.50;;;41.30;;
3006;SDS011;1513;47.650;10.720;2024-01-07T13:52:41;27.87;;;8.93;;
3006;SDS011;1513;47.650;10.720;2024-01-07T13:55:08;86.00;;;27.53;;
3006;SDS011;1513;47.650;10.720;2024-01-07T13:57:38;43.73;;;14.83;;
3006;SDS011;1513;47.650;10.720;2024-01-07T14:00:06;55.43;;;18.10;;
3006;SDS011;1513;47.650;10.720;2024-01-07T14:02:35;37.57;;;13.47;;
3006;SDS011;1513;47.650;10.720;2024-01-07T14:05:03;14.03;;;6.10;;
3006;SDS011;1513;47.650;10.720;2024-01-07T14:07:34;63.47;;;21.10;;
3006;SDS011;1513;47.650;10.720;2024-01-07T14:10:00;70.87;;;24.97;;
3006;SDS011;1513;47.650;10.720;2024-01-07T14:12:28;55.03;;;20.33;;
3006;SDS011;1513;47.650;10.720;2024-01-07T14:14:55;87.37;;;28.80;;
3006;SDS011;1513;47.650;10.720;2024-01-07T14:17:21;41.13;;;16.53;;
3006;SDS011;1513;47.650;10.720;2024-01-07T14:19:47;92.73;;;31.27;;
3006;SDS011;1513;47.650;10.720;2024-01-07T14:22:15;48.70;;;19.60;;
3006;SDS011;1513;47.650;10.720;2024-01-07T14:24:41;56.13;;;21.20;;
3006;SDS011;1513;47.650;10.720;2024-01-07T14:27:07;59.27;;;24.00;;
3006;SDS011;1513;47.650;10.720;2024-01-07T14:29:36;40.60;;;17.57;;
3006;SDS011;1513;47.650;10.720;2024-01-07T14:32:03;25.90;;;12.80;;
3006;SDS011;1513;47.650;10.720;2024-01-07T14:34:31;14.40;;;7.43;;
3006;SDS011;1513;47.650;10.720;2024-01-07T14:36:57;10.33;;;4.77;;
3006;SDS011;1513;47.650;10.720;2024-01-07T14:39:24;10.47;;;5.03;;
3006;SDS011;1513;47.650;10.720;2024-01-07T14:41:51;11.27;;;5.97;;
3006;SDS011;1513;47.650;10.720;2024-01-07T14:44:17;9.73;;;6.30;;
3006;SDS011;1513;47.650;10.720;2024-01-07T14:46:43;13.13;;;5.90;;
3006;SDS011;1513;47.650;10.720;2024-01-07T14:49:10;12.13;;;5.10;;
3006;SDS011;1513;47.650;10.720;2024-01-07T14:51:37;11.67;;;6.33;;
3006;SDS011;1513;47.650;10.720;2024-01-07T14:54:04;8.37;;;4.57;;
3006;SDS011;1513;47.650;10.720;2024-01-07T14:56:30;16.70;;;7.37;;
3006;SDS011;1513;47.650;10.720;2024-01-07T14:58:56;16.00;;;6.80;;
3006;SDS011;1513;47.650;10.720;2024-01-07T15:01:22;15.53;;;7.47;;
3006;SDS011;1513;47.650;10.720;2024-01-07T15:03:49;10.57;;;5.40;;
3006;SDS011;1513;47.650;10.720;2024-01-07T15:06:15;13.30;;;6.30;;